This is the latest recevied weather packets stored in our database for station/object KE5VT. If no packets are shown the sender has not sent any weather packets the latest 10 day(s).
| Time | Temp. | Humidity | Pressure | Rain* | Wind** | Luminosity | Snow |
|---|---|---|---|---|---|---|---|
| 1777813074 | 11.11° C | 69% | 1016.2 hPa | 0 mm | - | 30 W/m² | - |
| 1777812772 | 11.11° C | 71% | 1016.3 hPa | 0 mm | - | 64 W/m² | - |
| 1777812468 | 11.11° C | 75% | 1016.3 hPa | 0 mm | - | 40 W/m² | - |
| 1777812166 | 10.56° C | 71% | 1016.1 hPa | 0 mm | - | 27 W/m² | - |
| 1777811864 | 10.56° C | 75% | 1016.3 hPa | 0 mm | - | 26 W/m² | - |
| 1777811563 | 10.56° C | 77% | 1016.2 hPa | 0 mm | - | 26 W/m² | - |
| 1777811258 | 10° C | 78% | 1016 hPa | 0 mm | - | 25 W/m² | - |
| 1777810955 | 10° C | 80% | 1016.2 hPa | 0 mm | - | 25 W/m² | - |
| 1777810651 | 9.44° C | 80% | 1016 hPa | 0 mm | - | 26 W/m² | - |
| 1777810349 | 9.44° C | 84% | 1016.1 hPa | 0 mm | - | 23 W/m² | - |
| 1777810045 | 9.44° C | 87% | 1016.1 hPa | 0 mm | - | 23 W/m² | - |
| 1777809743 | 8.89° C | 88% | 1016 hPa | 0 mm | - | 22 W/m² | - |
| 1777809440 | 8.89° C | 89% | 1016 hPa | 0 mm | - | 21 W/m² | - |
| 1777809138 | 8.33° C | 91% | 1016 hPa | 0 mm | - | 21 W/m² | - |
| 1777808835 | 8.33° C | 92% | 1015.8 hPa | 0 mm | - | 20 W/m² | - |
| 1777808532 | 7.78° C | 93% | 1015.8 hPa | 0 mm | - | 19 W/m² | - |
| 1777808229 | 7.78° C | 93% | 1015.7 hPa | 0 mm | - | 18 W/m² | - |
| 1777807928 | 7.78° C | 93% | 1015.6 hPa | 0 mm | - | 17 W/m² | - |
| 1777807625 | 7.22° C | 94% | 1015.7 hPa | 0 mm | - | 16 W/m² | - |
| 1777807322 | 7.22° C | 94% | 1015.6 hPa | 0 mm | - | 15 W/m² | - |
| 1777807018 | 7.22° C | 94% | 1015.6 hPa | 0 mm | - | 14 W/m² | - |
| 1777806715 | 7.22° C | 94% | 1015.4 hPa | 0 mm | - | 12 W/m² | - |
| 1777806410 | 6.67° C | 94% | 1015.1 hPa | 0 mm | - | 11 W/m² | - |
| 1777806108 | 6.67° C | 95% | 1015.1 hPa | 0 mm | - | 10 W/m² | - |
| 1777805804 | 6.67° C | 95% | 1015 hPa | 0 mm | - | 8 W/m² | - |
* Rain latest hour (hover to see other rain measurements)
** Current wind speed in m/s (hover to see current wind gust speed)